Time;durP1;ratioP1;P1;durP2;ratioP2;P2;SDS_P1;SDS_P2;PMS_P1;PMS_P2;Temp;Humidity;BMP_temperature;BMP_pressure;BME280_temperature;BME280_humidity;BME280_pressure;Samples;Min_cycle;Max_cycle;Signal;HPM_P1;HPM_P2
2022/04/27 03:01:19;;;;;;;14.33;13.03;;;9.30;99.90;;;;;;5507481;23;20236;-78
2022/04/27 03:03:45;;;;;;;15.90;14.20;;;9.30;99.90;;;;;;4951120;29;20202;-78
2022/04/27 03:06:11;;;;;;;15.90;14.33;;;9.30;99.90;;;;;;4952796;29;20190;-77
2022/04/27 03:08:36;;;;;;;19.50;17.70;;;9.30;99.90;;;;;;4950911;29;20179;-79
2022/04/27 03:11:03;;;;;;;21.53;19.83;;;9.20;99.90;;;;;;4952574;29;20198;-78
2022/04/27 03:13:28;;;;;;;21.67;20.07;;;9.20;99.90;;;;;;4949396;29;20194;-79
2022/04/27 03:15:54;;;;;;;21.07;19.27;;;9.20;99.90;;;;;;4949949;29;20258;-79
2022/04/27 03:18:20;;;;;;;17.93;16.63;;;9.20;99.90;;;;;;4957508;23;20236;-76
2022/04/27 03:20:49;;;;;;;25.20;23.43;;;9.30;99.90;;;;;;4935308;29;20643;-77
2022/04/27 03:23:16;;;;;;;34.73;32.60;;;9.30;99.90;;;;;;4940712;29;20281;-76
2022/04/27 03:25:42;;;;;;;35.17;32.87;;;9.20;99.90;;;;;;4940517;29;20186;-76
2022/04/27 03:28:09;;;;;;;24.20;22.43;;;9.20;99.90;;;;;;4928129;29;20234;-77
2022/04/27 03:30:35;;;;;;;17.17;14.33;;;9.20;99.90;;;;;;4921274;29;20240;-76
2022/04/27 03:33:00;;;;;;;20.10;18.50;;;9.30;99.90;;;;;;4923809;29;20210;-77
2022/04/27 03:35:26;;;;;;;30.20;28.00;;;9.30;99.90;;;;;;4916479;29;20182;-77
2022/04/27 03:37:52;;;;;;;40.73;38.00;;;9.20;99.90;;;;;;4918836;29;20242;-76
2022/04/27 03:40:21;;;;;;;41.60;38.60;;;9.30;99.90;;;;;;4916328;29;20206;-77
2022/04/27 03:42:48;;;;;;;42.40;39.30;;;9.20;99.90;;;;;;4917402;29;20195;-76
2022/04/27 03:45:14;;;;;;;36.73;34.03;;;9.20;99.90;;;;;;4916947;29;20187;-76
2022/04/27 03:47:39;;;;;;;25.53;23.30;;;9.20;99.90;;;;;;4921369;29;20705;-77
2022/04/27 03:50:06;;;;;;;24.13;22.00;;;9.20;99.90;;;;;;4914710;29;20187;-74
2022/04/27 03:52:32;;;;;;;37.10;33.90;;;9.20;99.90;;;;;;4915128;29;20194;-74
2022/04/27 03:55:02;;;;;;;41.57;38.27;;;9.20;99.90;;;;;;4912009;29;20188;-75
2022/04/27 03:57:28;;;;;;;27.53;24.77;;;9.20;99.90;;;;;;4917347;29;20695;-75
2022/04/27 03:59:54;;;;;;;35.93;32.90;;;9.10;99.90;;;;;;4917536;29;20201;-74
2022/04/27 04:02:20;;;;;;;42.07;38.70;;;9.20;99.90;;;;;;4916584;29;20294;-74
2022/04/27 04:04:47;;;;;;;41.63;38.07;;;9.20;99.90;;;;;;4916618;29;20211;-74
2022/04/27 04:07:13;;;;;;;42.37;38.97;;;9.20;99.90;;;;;;4917096;29;20217;-75
2022/04/27 04:09:41;;;;;;;37.50;34.67;;;9.20;99.90;;;;;;4934345;29;20186;-74
2022/04/27 04:12:08;;;;;;;50.97;47.40;;;9.20;99.90;;;;;;4935544;29;20187;-75
2022/04/27 04:14:34;;;;;;;39.30;36.33;;;9.20;99.90;;;;;;4935446;29;20186;-74
2022/04/27 04:17:00;;;;;;;38.13;35.23;;;9.20;99.90;;;;;;4934555;29;20224;-75
2022/04/27 04:19:26;;;;;;;26.00;23.67;;;9.20;99.90;;;;;;4914460;29;20794;-75
2022/04/27 04:21:52;;;;;;;21.83;19.83;;;9.10;99.90;;;;;;4908175;29;20187;-75
2022/04/27 04:24:18;;;;;;;18.83;17.03;;;9.10;99.90;;;;;;4915929;29;20214;-75
2022/04/27 04:29:28;;;;;;;17.80;14.13;;;9.10;99.90;;;;;;4897136;29;20188;-75
2022/04/27 04:31:54;;;;;;;17.10;15.17;;;9.10;99.90;;;;;;4896215;29;20271;-74
2022/04/27 04:34:20;;;;;;;15.03;13.53;;;9.10;99.90;;;;;;4896502;29;20324;-74
2022/04/27 04:36:46;;;;;;;16.37;14.40;;;9.10;99.90;;;;;;4895454;29;20211;-75
2022/04/27 04:39:12;;;;;;;15.47;13.87;;;9.10;99.90;;;;;;4930723;29;20187;-74
2022/04/27 04:41:38;;;;;;;17.10;13.93;;;9.10;99.90;;;;;;4933489;29;20667;-74
2022/04/27 04:44:04;;;;;;;16.50;14.03;;;9.10;99.90;;;;;;4926430;29;20222;-76
2022/04/27 04:46:29;;;;;;;14.80;13.23;;;9.10;99.90;;;;;;4915334;29;20262;-75
2022/04/27 04:48:55;;;;;;;14.97;13.37;;;9.10;99.90;;;;;;4915731;29;20187;-75
2022/04/27 04:51:21;;;;;;;15.57;13.97;;;9.10;99.90;;;;;;4915775;29;20189;-75
2022/04/27 04:53:47;;;;;;;16.77;14.20;;;9.10;99.90;;;;;;4919499;29;20242;-75
2022/04/27 04:56:13;;;;;;;16.70;14.37;;;9.10;99.90;;;;;;4933582;29;20182;-75
2022/04/27 04:58:38;;;;;;;14.60;13.17;;;9.20;99.90;;;;;;4932864;29;20732;-75
2022/04/27 05:01:04;;;;;;;15.30;13.80;;;9.20;99.90;;;;;;4934873;29;20178;-75
2022/04/27 05:03:30;;;;;;;19.50;17.50;;;9.30;99.90;;;;;;4930247;29;20310;-76
2022/04/27 05:05:56;;;;;;;30.17;27.77;;;9.40;99.90;;;;;;4915907;29;20187;-76
2022/04/27 05:08:22;;;;;;;38.13;35.33;;;9.40;99.90;;;;;;4915036;29;20206;-76
2022/04/27 05:10:48;;;;;;;24.53;22.33;;;9.50;99.90;;;;;;4913363;29;20189;-76
2022/04/27 05:13:13;;;;;;;17.10;15.40;;;9.50;99.90;;;;;;4915679;29;20270;-76
2022/04/27 05:15:39;;;;;;;17.03;13.67;;;9.60;99.90;;;;;;4933542;29;20253;-74
2022/04/27 05:18:05;;;;;;;14.40;12.37;;;9.60;99.90;;;;;;4934660;29;20225;-76
2022/04/27 05:20:31;;;;;;;13.97;12.47;;;9.70;99.90;;;;;;4917158;29;20225;-75
2022/04/27 05:22:57;;;;;;;16.77;14.47;;;9.70;99.90;;;;;;4914725;29;20203;-74
2022/04/27 05:25:22;;;;;;;15.83;13.63;;;9.80;99.90;;;;;;4931331;29;20240;-73
2022/04/27 05:27:49;;;;;;;14.60;13.10;;;9.90;99.90;;;;;;4933782;29;20761;-74
2022/04/27 05:32:59;;;;;;;23.33;20.97;;;10.00;99.90;;;;;;4934217;29;20606;-73
2022/04/27 05:35:25;;;;;;;34.40;31.20;;;10.10;99.90;;;;;;4916803;29;20179;-73
2022/04/27 05:37:50;;;;;;;33.73;30.87;;;10.20;99.90;;;;;;4905286;29;20207;-73
2022/04/27 05:40:16;;;;;;;20.97;18.83;;;10.30;99.90;;;;;;4920235;29;20245;-74
2022/04/27 05:42:42;;;;;;;27.73;22.90;;;10.50;99.90;;;;;;4931557;29;20182;-73
2022/04/27 05:45:08;;;;;;;21.27;19.17;;;10.70;99.90;;;;;;4917567;29;20212;-73
2022/04/27 05:47:35;;;;;;;18.53;16.50;;;10.90;99.90;;;;;;4913767;29;20216;-73
2022/04/27 05:50:01;;;;;;;19.80;17.80;;;11.10;99.90;;;;;;4914835;29;20658;-72
2022/04/27 05:52:27;;;;;;;21.13;17.77;;;11.00;99.90;;;;;;4913934;29;20215;-73
2022/04/27 05:54:53;;;;;;;23.93;21.10;;;11.00;99.90;;;;;;4927585;29;20216;-73
2022/04/27 05:57:19;;;;;;;38.80;35.80;;;11.00;99.90;;;;;;4932909;29;20582;-73
2022/04/27 05:59:45;;;;;;;52.37;48.63;;;11.00;99.90;;;;;;4934247;29;20182;-73
2022/04/27 06:02:11;;;;;;;38.80;35.73;;;10.90;99.90;;;;;;4932930;29;20197;-72
2022/04/27 06:04:37;;;;;;;37.00;33.90;;;10.90;99.90;;;;;;4929648;29;20207;-73
2022/04/27 06:07:04;;;;;;;24.13;19.13;;;11.00;99.90;;;;;;4934555;29;20651;-74
2022/04/27 06:09:30;;;;;;;25.03;22.07;;;10.90;99.90;;;;;;4934040;29;20207;-73
2022/04/27 06:11:55;;;;;;;29.67;26.83;;;10.80;99.90;;;;;;4915190;29;20222;-73
2022/04/27 06:14:21;;;;;;;37.20;34.00;;;10.70;99.90;;;;;;4915140;29;20554;-73
2022/04/27 06:16:47;;;;;;;64.87;60.27;;;10.80;99.90;;;;;;4913570;29;20229;-73
2022/04/27 06:19:13;;;;;;;91.27;85.23;;;10.80;99.90;;;;;;4902969;29;20540;-73
2022/04/27 06:21:39;;;;;;;90.30;84.73;;;10.80;99.90;;;;;;4898377;29;20276;-73
2022/04/27 06:24:06;;;;;;;92.80;87.10;;;10.90;99.90;;;;;;4907377;29;20230;-74
2022/04/27 06:26:33;;;;;;;95.17;89.33;;;10.90;99.90;;;;;;4915573;29;20206;-72
2022/04/27 06:29:02;;;;;;;82.70;77.50;;;11.00;99.90;;;;;;4915876;29;20189;-72
2022/04/27 06:31:28;;;;;;;77.07;72.07;;;11.00;99.90;;;;;;4914592;29;20190;-73
2022/04/27 06:33:54;;;;;;;75.00;70.10;;;11.00;99.90;;;;;;4910811;29;20195;-73
2022/04/27 06:36:19;;;;;;;63.87;59.40;;;11.00;99.90;;;;;;4894554;29;20565;-72
2022/04/27 06:38:45;;;;;;;62.43;57.93;;;11.00;99.90;;;;;;4893916;29;20199;-72
2022/04/27 06:41:11;;;;;;;88.17;82.67;;;11.00;99.90;;;;;;4894528;29;20238;-72
2022/04/27 06:43:37;;;;;;;112.70;106.00;;;11.00;99.90;;;;;;4898346;29;20267;-72
2022/04/27 06:46:02;;;;;;;117.70;110.33;;;11.00;99.90;;;;;;4933751;29;20205;-72
2022/04/27 06:48:28;;;;;;;91.33;85.63;;;11.00;99.90;;;;;;4931961;29;20198;-71
2022/04/27 06:50:54;;;;;;;88.83;83.40;;;11.00;99.90;;;;;;4934023;29;20783;-72
2022/04/27 06:53:20;;;;;;;112.53;105.93;;;10.90;99.90;;;;;;4933719;29;20273;-72
2022/04/27 06:55:47;;;;;;;107.47;101.27;;;10.90;99.90;;;;;;4914633;29;20189;-72
2022/04/27 06:58:13;;;;;;;131.50;123.60;;;10.70;99.90;;;;;;4914457;29;20288;-73
2022/04/27 07:00:39;;;;;;;132.27;124.23;;;10.80;99.90;;;;;;4899233;29;20194;-73
2022/04/27 07:03:05;;;;;;;82.37;77.27;;;10.90;99.90;;;;;;4897124;29;20195;-73
2022/04/27 07:05:31;;;;;;;63.37;58.83;;;11.00;99.90;;;;;;4917310;29;20277;-73
2022/04/27 07:07:59;;;;;;;41.07;37.93;;;11.10;99.90;;;;;;4932233;29;20290;-73
2022/04/27 07:10:25;;;;;;;17.73;14.47;;;11.20;99.90;;;;;;4917792;29;20216;-73
2022/04/27 07:12:51;;;;;;;19.93;17.87;;;11.10;99.90;;;;;;4916845;29;20651;-73
2022/04/27 07:15:17;;;;;;;20.57;18.47;;;11.00;99.90;;;;;;4930378;29;20587;-73
2022/04/27 07:17:43;;;;;;;21.67;18.73;;;11.00;99.90;;;;;;4935190;29;20222;-73
2022/04/27 07:20:10;;;;;;;31.50;28.60;;;11.00;99.90;;;;;;4909169;29;20211;-75
2022/04/27 07:22:36;;;;;;;30.97;28.33;;;11.00;99.90;;;;;;4932687;29;20191;-73
2022/04/27 07:25:03;;;;;;;22.37;20.40;;;11.10;99.90;;;;;;4916676;29;20218;-73
2022/04/27 07:27:31;;;;;;;15.77;13.97;;;11.20;99.90;;;;;;4917360;29;20231;-73
2022/04/27 07:29:58;;;;;;;16.13;13.23;;;11.20;99.90;;;;;;4917755;29;20187;-73
2022/04/27 07:32:23;;;;;;;16.63;14.23;;;11.30;99.90;;;;;;4917838;29;20266;-73
2022/04/27 07:34:51;;;;;;;15.77;12.63;;;11.40;99.90;;;;;;4918720;29;20278;-73
2022/04/27 07:37:18;;;;;;;13.87;12.10;;;11.60;99.90;;;;;;4917214;29;20291;-73
2022/04/27 07:39:44;;;;;;;13.23;11.83;;;11.90;99.90;;;;;;4917761;29;20559;-73
2022/04/27 07:42:09;;;;;;;15.83;14.37;;;12.30;99.90;;;;;;4917746;29;20265;-73
2022/04/27 07:44:35;;;;;;;17.83;16.13;;;12.50;99.90;;;;;;4924045;29;20272;-73
2022/04/27 07:47:01;;;;;;;16.77;15.27;;;12.60;99.90;;;;;;4936166;29;20285;-73
2022/04/27 07:49:27;;;;;;;15.97;14.27;;;12.90;99.90;;;;;;4935563;29;20678;-72
2022/04/27 07:51:54;;;;;;;14.27;12.83;;;13.20;99.90;;;;;;4936275;29;20243;-72
2022/04/27 07:54:20;;;;;;;12.83;11.53;;;13.60;99.90;;;;;;4930362;29;20190;-73
2022/04/27 07:56:46;;;;;;;15.27;11.47;;;13.80;99.90;;;;;;4915782;29;20203;-72
2022/04/27 07:59:11;;;;;;;11.47;10.20;;;13.80;99.90;;;;;;4915749;29;20326;-72
2022/04/27 08:01:37;;;;;;;16.97;11.67;;;13.90;99.90;;;;;;4917114;29;20270;-73
2022/04/27 08:04:03;;;;;;;14.60;11.47;;;13.80;99.90;;;;;;4933812;29;20346;-73
2022/04/27 08:06:29;;;;;;;14.47;12.10;;;13.80;99.90;;;;;;4936121;29;20187;-72
2022/04/27 08:08:55;;;;;;;14.57;11.93;;;13.80;99.90;;;;;;4935723;29;20193;-73
2022/04/27 08:11:22;;;;;;;12.93;11.63;;;13.90;99.90;;;;;;4934966;29;20269;-72
2022/04/27 08:13:48;;;;;;;13.83;12.43;;;14.00;99.90;;;;;;4934468;29;20186;-73
2022/04/27 08:16:14;;;;;;;14.10;12.47;;;14.00;99.90;;;;;;4916029;29;20651;-73
2022/04/27 08:18:40;;;;;;;12.13;11.00;;;13.70;99.90;;;;;;4916551;29;20222;-74
2022/04/27 08:21:21;;;;;;;11.67;10.63;;;13.80;99.90;;;;;;4917082;29;20235;-74
2022/04/27 08:23:48;;;;;;;11.10;10.20;;;13.80;99.90;;;;;;4916845;29;20215;-74
2022/04/27 08:26:14;;;;;;;10.83;9.93;;;13.70;99.90;;;;;;4933809;29;20269;-74
2022/04/27 08:28:41;;;;;;;10.40;8.67;;;13.70;99.90;;;;;;4950132;29;20210;-74
2022/04/27 08:31:11;;;;;;;10.70;9.83;;;13.60;99.90;;;;;;4950511;29;20193;-74
2022/04/27 08:33:37;;;;;;;10.20;9.50;;;13.50;99.90;;;;;;4950413;29;20293;-74
2022/04/27 08:36:03;;;;;;;11.00;10.30;;;13.40;99.90;;;;;;4932758;29;20275;-74
2022/04/27 08:38:30;;;;;;;10.70;9.90;;;13.50;99.90;;;;;;4916114;29;20207;-74
2022/04/27 08:40:55;;;;;;;8.40;7.80;;;13.60;99.90;;;;;;4916632;29;20183;-73
2022/04/27 08:43:23;;;;;;;7.60;7.10;;;13.60;99.90;;;;;;4916542;29;20218;-73
2022/04/27 08:45:50;;;;;;;7.67;7.10;;;13.60;99.90;;;;;;4932320;29;20179;-74
2022/04/27 08:48:18;;;;;;;7.93;7.23;;;13.50;99.90;;;;;;4949812;29;20217;-73
2022/04/27 08:50:46;;;;;;;7.33;6.83;;;13.50;99.90;;;;;;4947027;29;20238;-73
2022/04/27 08:53:12;;;;;;;8.13;7.53;;;13.40;99.90;;;;;;4900811;29;20191;-73
2022/04/27 08:55:40;;;;;;;9.40;8.67;;;13.30;99.90;;;;;;4922932;29;20209;-73
2022/04/27 08:58:06;;;;;;;8.50;7.90;;;13.30;99.90;;;;;;4948847;29;20212;-73
2022/04/27 09:00:32;;;;;;;9.07;8.43;;;13.40;99.90;;;;;;4934345;29;20269;-72
2022/04/27 09:03:24;;;;;;;8.27;7.57;;;13.50;99.90;;;;;;4935006;29;20245;-73
2022/04/27 09:05:59;;;;;;;7.90;7.33;;;13.30;99.90;;;;;;4919605;29;20190;-73
2022/04/27 09:08:36;;;;;;;7.23;6.73;;;13.20;99.90;;;;;;4915385;29;20378;-73
2022/04/27 09:11:14;;;;;;;7.93;7.23;;;13.20;99.90;;;;;;4927771;29;20677;-73
2022/04/27 09:13:40;;;;;;;11.47;10.77;;;13.30;99.90;;;;;;4920028;29;20187;-73
2022/04/27 09:16:07;;;;;;;9.83;9.13;;;13.40;99.90;;;;;;4937568;29;20193;-73
2022/04/27 09:21:53;;;;;;;8.30;7.70;;;14.10;99.90;;;;;;4934317;29;20183;-74
2022/04/27 09:24:19;;;;;;;8.93;8.33;;;14.90;99.90;;;;;;4931469;29;20214;-74
2022/04/27 09:26:45;;;;;;;8.20;7.67;;;15.40;99.90;;;;;;4915204;29;20262;-71
2022/04/27 09:29:24;;;;;;;7.83;7.30;;;15.50;99.90;;;;;;4913900;29;20184;-74
2022/04/27 09:31:59;;;;;;;6.73;6.23;;;15.50;99.90;;;;;;4915243;29;20274;-74
2022/04/27 09:34:28;;;;;;;6.80;6.30;;;15.60;99.90;;;;;;4916845;29;20178;-71
2022/04/27 09:37:13;;;;;;;7.57;6.83;;;15.50;99.90;;;;;;4948386;29;20213;-74
2022/04/27 09:39:40;;;;;;;7.27;6.67;;;15.40;99.90;;;;;;4934105;29;20228;-72
2022/04/27 09:42:08;;;;;;;6.73;6.20;;;15.40;99.90;;;;;;4923472;29;20226;-71
2022/04/27 09:44:38;;;;;;;6.80;6.30;;;15.60;99.90;;;;;;4911481;29;20215;-74
2022/04/27 09:47:06;;;;;;;7.50;7.00;;;15.90;99.90;;;;;;4907759;29;20202;-73
2022/04/27 09:49:32;;;;;;;8.13;7.53;;;16.40;99.90;;;;;;4913614;29;20544;-73
2022/04/27 09:52:00;;;;;;;7.60;7.00;;;16.50;99.90;;;;;;4913944;29;20564;-72
2022/04/27 09:54:28;;;;;;;8.13;7.60;;;16.60;99.90;;;;;;4917543;29;20685;-72
2022/04/27 09:56:56;;;;;;;13.47;12.67;;;16.90;99.90;;;;;;4933531;29;20567;-72
2022/04/27 09:59:30;;;;;;;19.20;18.20;;;17.00;99.90;;;;;;4932799;29;20190;-71
2022/04/27 10:02:04;;;;;;;21.80;20.40;;;17.10;99.90;;;;;;4933817;29;20277;-72
2022/04/27 10:04:30;;;;;;;25.13;23.70;;;17.00;99.90;;;;;;4930485;29;20691;-72
2022/04/27 10:07:01;;;;;;;23.23;21.93;;;16.90;99.90;;;;;;4913295;29;20210;-72
2022/04/27 10:09:29;;;;;;;24.73;23.43;;;17.10;99.90;;;;;;4914858;29;20648;-73
2022/04/27 10:11:56;;;;;;;23.63;22.37;;;16.80;99.90;;;;;;4914977;29;20191;-71
2022/04/27 10:14:22;;;;;;;22.97;21.77;;;16.70;99.90;;;;;;4915940;29;20195;-72
2022/04/27 10:16:49;;;;;;;18.77;17.73;;;16.30;99.90;;;;;;4933491;29;20273;-72
2022/04/27 10:19:17;;;;;;;20.23;19.00;;;16.30;99.90;;;;;;4934400;29;20538;-72
2022/04/27 10:21:56;;;;;;;17.77;16.73;;;16.20;99.90;;;;;;4932728;29;20209;-71
2022/04/27 10:24:34;;;;;;;14.20;13.37;;;16.20;99.90;;;;;;4932160;29;20218;-72
2022/04/27 10:27:23;;;;;;;10.30;9.70;;;15.90;99.90;;;;;;4913196;29;20285;-71
2022/04/27 10:29:51;;;;;;;7.53;6.93;;;15.70;99.90;;;;;;4913912;29;20182;-73
2022/04/27 10:32:46;;;;;;;7.93;7.23;;;15.70;99.90;;;;;;4913688;29;20186;-73
2022/04/27 10:35:12;;;;;;;7.90;7.27;;;15.60;99.90;;;;;;4922919;29;20185;-72
2022/04/27 10:37:59;;;;;;;9.10;8.50;;;15.60;99.90;;;;;;4937209;29;20674;-72
2022/04/27 10:40:29;;;;;;;9.07;8.27;;;15.70;99.90;;;;;;4952152;29;20182;-72
2022/04/27 10:43:11;;;;;;;12.33;11.23;;;15.90;99.90;;;;;;4937015;29;20186;-73
2022/04/27 10:45:39;;;;;;;7.03;6.53;;;16.00;99.90;;;;;;4926483;29;20681;-73
2022/04/27 10:48:07;;;;;;;8.50;7.97;;;15.90;99.90;;;;;;4916218;29;20210;-73
2022/04/27 10:50:37;;;;;;;10.57;9.97;;;16.40;99.90;;;;;;4917955;29;20219;-72
2022/04/27 10:53:24;;;;;;;19.07;18.07;;;17.10;99.90;;;;;;4918136;29;20556;-73
2022/04/27 10:55:53;;;;;;;14.83;13.83;;;17.60;99.90;;;;;;4930139;29;20186;-73
2022/04/27 10:58:22;;;;;;;11.67;11.03;;;17.80;99.90;;;;;;4936685;29;20632;-71
2022/04/27 11:01:03;;;;;;;7.93;7.43;;;18.20;99.90;;;;;;4935578;29;20210;-71
2022/04/27 11:03:36;;;;;;;7.23;6.83;;;19.00;99.90;;;;;;4951649;29;20357;-72
2022/04/27 11:06:04;;;;;;;7.00;6.40;;;20.00;99.90;;;;;;4937773;29;20194;-71
2022/04/27 11:08:47;;;;;;;6.77;6.23;;;20.60;99.80;;;;;;4917424;29;20695;-71
2022/04/27 11:11:16;;;;;;;7.00;6.40;;;20.50;97.10;;;;;;4916864;29;20242;-71
2022/04/27 11:13:43;;;;;;;6.57;6.07;;;20.60;96.60;;;;;;4918017;29;20183;-71
2022/04/27 11:16:10;;;;;;;7.30;6.80;;;20.50;96.40;;;;;;4932156;29;20329;-71
2022/04/27 11:18:49;;;;;;;6.97;6.47;;;19.90;95.80;;;;;;4936831;29;20233;-72
2022/04/27 11:21:18;;;;;;;6.33;5.93;;;19.40;96.70;;;;;;4936983;29;20273;-72
2022/04/27 11:23:44;;;;;;;6.73;6.30;;;19.20;96.50;;;;;;4951633;29;20214;-72
2022/04/27 11:26:10;;;;;;;6.80;6.40;;;19.90;96.00;;;;;;4937056;29;20206;-72
2022/04/27 11:28:39;;;;;;;6.60;6.10;;;21.20;94.40;;;;;;4917367;29;20286;-72
2022/04/27 11:31:06;;;;;;;6.33;5.93;;;21.00;92.10;;;;;;4917666;29;20179;-72
2022/04/27 11:33:35;;;;;;;6.93;6.53;;;21.60;91.70;;;;;;4917738;29;20179;-71
2022/04/27 11:36:01;;;;;;;6.50;5.97;;;22.00;90.30;;;;;;4929752;29;20670;-71
2022/04/27 11:38:36;;;;;;;8.83;8.33;;;21.80;88.70;;;;;;4921584;29;20218;-71
2022/04/27 11:41:16;;;;;;;11.10;10.50;;;24.20;82.30;;;;;;4917493;29;20190;-71
2022/04/27 11:43:43;;;;;;;8.73;8.23;;;24.70;74.30;;;;;;4916137;29;20210;-71
2022/04/27 11:46:10;;;;;;;8.80;8.30;;;25.10;69.60;;;;;;4916586;29;20194;-71
2022/04/27 11:48:36;;;;;;;10.33;9.73;;;24.60;66.90;;;;;;4916823;29;20832;-72
2022/04/27 11:51:03;;;;;;;13.77;12.87;;;24.10;69.50;;;;;;4919414;29;20187;-72
2022/04/27 11:53:29;;;;;;;13.83;12.80;;;23.30;68.70;;;;;;4917517;29;20558;-71
2022/04/27 11:55:57;;;;;;;18.07;16.97;;;22.90;71.90;;;;;;4927059;29;20183;-71
2022/04/27 11:58:26;;;;;;;15.53;14.43;;;23.00;70.20;;;;;;4936754;29;20202;-71
2022/04/27 12:00:57;;;;;;;14.33;13.53;;;23.20;69.50;;;;;;4944328;29;20751;-71
2022/04/27 12:03:24;;;;;;;14.60;13.80;;;22.60;70.80;;;;;;4939265;29;20218;-71
2022/04/27 12:05:51;;;;;;;14.50;13.60;;;22.70;71.10;;;;;;4922551;29;20652;-72
2022/04/27 12:08:23;;;;;;;12.97;12.30;;;22.70;70.80;;;;;;4903642;29;20288;-71
2022/04/27 12:10:49;;;;;;;14.30;13.53;;;22.40;69.00;;;;;;4912274;29;20195;-71
2022/04/27 12:13:17;;;;;;;12.17;11.47;;;20.40;75.00;;;;;;4909492;29;20222;-71
2022/04/27 12:15:47;;;;;;;7.77;7.17;;;19.40;78.90;;;;;;4916884;29;20190;-71
2022/04/27 12:18:16;;;;;;;16.70;15.80;;;18.50;81.20;;;;;;4916576;29;20289;-70
2022/04/27 12:20:48;;;;;;;7.50;7.00;;;17.70;85.20;;;;;;4918260;29;20323;-71
2022/04/27 12:23:20;;;;;;;8.07;7.47;;;17.20;88.90;;;;;;4916385;29;20190;-71
2022/04/27 12:25:52;;;;;;;8.20;7.70;;;16.60;90.40;;;;;;4925843;29;20222;-72
2022/04/27 12:28:20;;;;;;;7.90;7.20;;;16.40;91.50;;;;;;4934670;29;20206;-73
2022/04/27 12:30:51;;;;;;;8.20;7.60;;;16.20;93.00;;;;;;4935700;29;20597;-73
2022/04/27 12:33:23;;;;;;;7.57;6.87;;;16.20;94.00;;;;;;4950096;29;20707;-72
2022/04/27 12:39:10;;;;;;;7.13;6.63;;;16.20;95.20;;;;;;4915861;29;20190;-72
2022/04/27 12:41:41;;;;;;;7.40;6.90;;;16.40;95.90;;;;;;4915159;29;20293;-72
2022/04/27 12:44:09;;;;;;;8.90;8.30;;;16.40;95.50;;;;;;4915888;29;20242;-72
2022/04/27 12:46:38;;;;;;;7.27;6.77;;;16.40;97.10;;;;;;4929271;29;20182;-72
2022/04/27 12:49:06;;;;;;;7.80;7.10;;;16.50;96.60;;;;;;4935425;29;20644;-72
2022/04/27 12:51:35;;;;;;;7.87;7.27;;;16.50;97.50;;;;;;4949457;29;20178;-72
2022/04/27 12:54:03;;;;;;;9.47;8.77;;;16.40;97.60;;;;;;4935109;29;20670;-72
2022/04/27 12:56:33;;;;;;;8.40;7.90;;;16.30;98.60;;;;;;4935740;29;20187;-72
2022/04/27 12:59:17;;;;;;;8.00;7.40;;;16.40;98.30;;;;;;4914387;29;20194;-72
2022/04/27 13:01:42;;;;;;;9.80;9.20;;;16.30;98.00;;;;;;4914071;29;20183;-73
2022/04/27 13:04:08;;;;;;;9.10;8.40;;;16.30;99.80;;;;;;4915712;29;20709;-72
2022/04/27 13:06:34;;;;;;;9.27;8.67;;;16.30;99.00;;;;;;4927051;29;20269;-73
2022/04/27 13:11:57;;;;;;;7.33;6.93;;;16.40;99.90;;;;;;4925273;29;20273;-73
2022/04/27 13:14:25;;;;;;;9.47;8.77;;;16.40;99.10;;;;;;4928973;29;20239;-73
2022/04/27 13:16:55;;;;;;;9.70;9.10;;;16.20;99.60;;;;;;4930639;29;20217;-74
2022/04/27 13:19:22;;;;;;;11.57;10.67;;;16.20;99.90;;;;;;4950257;29;20194;-73
2022/04/27 13:21:54;;;;;;;10.27;9.43;;;16.50;99.90;;;;;;5091350;28;20962;-73
2022/04/27 13:24:20;;;;;;;8.43;7.83;;;16.60;99.60;;;;;;5088654;28;20318;-73
2022/04/27 13:26:46;;;;;;;7.30;6.63;;;16.70;99.40;;;;;;5086475;28;20242;-73
2022/04/27 13:29:12;;;;;;;8.37;7.77;;;17.00;98.80;;;;;;5088769;28;20554;-72
2022/04/27 13:31:38;;;;;;;8.40;7.80;;;17.20;97.70;;;;;;5085222;28;20177;-72
2022/04/27 13:34:04;;;;;;;6.80;6.30;;;17.30;97.60;;;;;;5066970;28;20185;-73
2022/04/27 13:36:30;;;;;;;7.97;7.37;;;17.60;97.30;;;;;;5068005;28;20231;-72
2022/04/27 13:38:56;;;;;;;8.10;7.50;;;17.70;96.00;;;;;;5069466;28;20265;-72
2022/04/27 13:41:22;;;;;;;8.63;7.93;;;17.80;95.20;;;;;;5084710;28;20291;-72
2022/04/27 13:43:47;;;;;;;7.57;6.93;;;17.90;95.00;;;;;;5086123;28;20728;-72
2022/04/27 13:46:13;;;;;;;6.80;6.30;;;18.40;94.60;;;;;;5087967;28;20173;-72
2022/04/27 13:48:40;;;;;;;7.33;6.83;;;20.50;90.40;;;;;;5087478;28;20215;-72
2022/04/27 13:51:06;;;;;;;12.63;11.77;;;22.60;81.40;;;;;;5087615;28;20235;-72
2022/04/27 13:53:35;;;;;;;7.97;7.47;;;23.50;73.00;;;;;;5085450;28;20213;-72
2022/04/27 13:56:00;;;;;;;13.27;12.40;;;23.20;70.40;;;;;;5086545;28;20251;-72
2022/04/27 13:58:28;;;;;;;9.10;8.57;;;22.60;69.70;;;;;;5087538;28;20287;-69
2022/04/27 14:00:54;;;;;;;8.53;7.97;;;21.30;78.30;;;;;;5087353;28;20303;-68
2022/04/27 14:03:20;;;;;;;11.67;10.97;;;20.60;75.60;;;;;;5070145;28;20185;-68
2022/04/27 14:05:47;;;;;;;10.13;9.50;;;19.80;76.80;;;;;;5076587;28;20181;-68
2022/04/27 14:08:14;;;;;;;7.67;7.17;;;18.90;79.00;;;;;;5078842;28;20200;-68
2022/04/27 14:10:39;;;;;;;13.03;12.13;;;18.00;83.30;;;;;;5067687;28;20185;-68
2022/04/27 14:13:14;;;;;;;10.47;9.67;;;17.60;85.20;;;;;;5078042;28;20656;-69
2022/04/27 14:18:31;;;;;;;7.67;7.17;;;17.60;86.80;;;;;;5066475;28;20202;-68
2022/04/27 14:20:58;;;;;;;7.40;6.90;;;17.60;86.80;;;;;;5085438;28;20752;-68
2022/04/27 14:23:25;;;;;;;7.87;7.27;;;17.60;87.40;;;;;;5089398;28;20266;-68
2022/04/27 14:25:52;;;;;;;7.50;6.90;;;17.60;87.50;;;;;;5087452;28;20228;-74
2022/04/27 14:28:19;;;;;;;7.50;7.00;;;17.50;86.80;;;;;;5086621;28;20235;-74
2022/04/27 14:30:47;;;;;;;7.43;7.03;;;17.70;87.90;;;;;;5087408;28;20235;-75
2022/04/27 14:33:15;;;;;;;8.13;7.30;;;17.70;85.20;;;;;;5059739;28;20186;-73
2022/04/27 14:35:44;;;;;;;7.90;7.33;;;17.50;84.30;;;;;;5052491;28;20198;-73
2022/04/27 14:38:11;;;;;;;8.50;7.93;;;17.50;84.20;;;;;;5053299;28;20233;-73
2022/04/27 14:40:37;;;;;;;10.07;9.23;;;17.80;84.70;;;;;;5053713;28;20216;-73
2022/04/27 14:43:04;;;;;;;7.33;6.83;;;19.30;81.00;;;;;;5063405;28;20182;-73
2022/04/27 14:45:37;;;;;;;10.00;9.40;;;21.40;75.70;;;;;;5073821;28;20174;-72
2022/04/27 14:48:04;;;;;;;12.43;11.70;;;23.20;69.60;;;;;;5073193;28;20221;-73
2022/04/27 14:50:33;;;;;;;7.63;6.90;;;24.90;60.40;;;;;;5069531;28;20188;-74
2022/04/27 14:53:02;;;;;;;9.15;8.55;;;25.70;56.20;;;;;;5053008;28;20186;-74
2022/04/27 14:55:28;;;;;;;9.40;8.80;;;26.20;53.90;;;;;;5055840;28;20178;-73
2022/04/27 14:57:53;;;;;;;7.03;6.53;;;26.30;53.50;;;;;;5053622;28;20289;-72
2022/04/27 15:00:20;;;;;;;5.90;5.50;;;26.50;52.10;;;;;;5059099;28;20193;-73
2022/04/27 15:02:46;;;;;;;7.20;6.72;;;27.30;50.30;;;;;;5072320;28;20178;-73
2022/04/27 15:05:11;;;;;;;8.32;7.72;;;27.10;48.00;;;;;;5073253;28;20184;-73
2022/04/27 15:07:37;;;;;;;7.97;7.45;;;26.30;48.40;;;;;;5072893;28;20216;-73
2022/04/27 15:10:04;;;;;;;9.55;9.02;;;26.70;48.10;;;;;;5070580;28;20188;-73
2022/04/27 15:12:30;;;;;;;8.65;8.15;;;26.00;46.70;;;;;;5052051;28;20252;-74
2022/04/27 15:14:55;;;;;;;8.05;7.55;;;26.50;47.90;;;;;;5053143;28;20638;-74
2022/04/27 15:17:21;;;;;;;7.15;6.65;;;26.40;47.80;;;;;;5070124;23;20588;-73
2022/04/27 15:22:41;;;;;;;6.72;6.32;;;27.20;46.00;;;;;;5053056;28;20557;-76
2022/04/27 15:22:44;;;;;;;6.63;6.22;;;25.40;46.70;;;;;;5033559;28;20190;-76
2022/04/27 15:25:15;;;;;;;7.63;7.23;;;24.00;49.90;;;;;;5033616;28;20308;-74
2022/04/27 15:27:42;;;;;;;8.33;7.73;;;23.10;51.50;;;;;;5033184;28;20214;-74
2022/04/27 15:30:09;;;;;;;7.20;6.67;;;22.10;53.50;;;;;;5034471;28;20183;-75
2022/04/27 15:32:35;;;;;;;7.00;6.60;;;20.60;56.50;;;;;;5033739;28;20258;-75
2022/04/27 15:35:01;;;;;;;7.43;6.90;;;20.80;57.40;;;;;;5036421;28;20186;-74
2022/04/27 15:37:27;;;;;;;8.97;8.27;;;21.40;55.20;;;;;;5050682;28;20221;-74
2022/04/27 15:39:54;;;;;;;8.27;7.67;;;21.60;55.80;;;;;;5032589;28;20210;-74
2022/04/27 15:42:21;;;;;;;6.27;5.90;;;22.10;54.50;;;;;;5012955;28;20184;-75
2022/04/27 15:44:46;;;;;;;7.33;6.63;;;22.70;53.80;;;;;;5027220;28;20206;-75
2022/04/27 15:47:12;;;;;;;7.53;7.00;;;23.60;51.90;;;;;;5012335;28;20199;-75
2022/04/27 15:49:38;;;;;;;6.93;6.47;;;23.70;51.20;;;;;;5012700;28;20207;-74
2022/04/27 15:52:05;;;;;;;6.63;6.13;;;24.20;49.80;;;;;;5030207;28;20681;-75
2022/04/27 15:54:31;;;;;;;6.40;5.90;;;24.70;49.90;;;;;;5049977;28;20178;-75
2022/04/27 15:56:57;;;;;;;6.32;5.82;;;25.70;48.00;;;;;;5031971;28;20183;-75
2022/04/27 15:59:23;;;;;;;7.78;7.20;;;25.80;47.20;;;;;;5047590;28;20228;-75